Time;durP1;ratioP1;P1;durP2;ratioP2;P2;SDS_P1;SDS_P2;PMS_P1;PMS_P2;Temp;Humidity;BMP_temperature;BMP_pressure;BME280_temperature;BME280_humidity;BME280_pressure;Samples;Min_cycle;Max_cycle;Signal;HPM_P1;HPM_P2
2023/04/24 00:01:58;;;;;;;9.80;8.40;;;;;;;;;;5230931;28;20547;-74
2023/04/24 00:04:29;;;;;;;11.67;9.23;;;;;;;;;;5228736;28;20041;-74
2023/04/24 00:07:01;;;;;;;8.77;7.87;;;;;;;;;;5228641;27;20062;-74
2023/04/24 00:09:32;;;;;;;10.17;8.57;;;;;;;;;;5230550;28;20709;-74
2023/04/24 00:12:04;;;;;;;12.77;8.70;;;;;;;;;;5230846;28;20025;-74
2023/04/24 00:14:35;;;;;;;10.47;9.00;;;;;;;;;;5230564;28;20057;-74
2023/04/24 00:17:06;;;;;;;14.13;10.13;;;;;;;;;;5230704;28;20043;-74
2023/04/24 00:19:38;;;;;;;12.23;9.07;;;;;;;;;;5230051;28;20021;-74
2023/04/24 00:22:10;;;;;;;10.63;9.50;;;;;;;;;;5229383;28;20015;-74
2023/04/24 00:24:41;;;;;;;14.73;11.47;;;;;;;;;;5230227;28;20021;-74
2023/04/24 00:27:13;;;;;;;15.27;11.17;;;;;;;;;;5230305;28;20023;-74
2023/04/24 00:29:44;;;;;;;14.80;10.87;;;;;;;;;;5229565;28;20018;-74
2023/04/24 00:32:15;;;;;;;13.23;11.03;;;;;;;;;;5229900;28;20078;-74
2023/04/24 00:34:46;;;;;;;16.40;11.67;;;;;;;;;;5230755;28;20081;-74
2023/04/24 00:37:18;;;;;;;13.63;11.37;;;;;;;;;;5245349;27;20374;-74
2023/04/24 00:39:49;;;;;;;22.00;13.67;;;;;;;;;;5230826;28;20105;-74
2023/04/24 00:42:20;;;;;;;14.80;11.93;;;;;;;;;;5229764;28;20036;-74
2023/04/24 00:44:51;;;;;;;15.43;11.67;;;;;;;;;;5229269;28;20616;-75
2023/04/24 00:47:23;;;;;;;18.50;12.83;;;;;;;;;;5230106;28;20072;-75
2023/04/24 00:49:54;;;;;;;16.63;13.30;;;;;;;;;;5230681;28;20105;-75
2023/04/24 00:52:26;;;;;;;17.03;14.20;;;;;;;;;;5227417;28;20026;-74
2023/04/24 00:54:57;;;;;;;20.50;13.93;;;;;;;;;;5230382;28;20049;-75
2023/04/24 00:57:28;;;;;;;17.17;11.80;;;;;;;;;;5229012;28;21122;-75
2023/04/24 00:59:59;;;;;;;18.80;11.93;;;;;;;;;;5230019;28;20021;-75
2023/04/24 01:02:34;;;;;;;14.43;12.23;;;;;;;;;;5229961;28;20214;-75
2023/04/24 01:05:06;;;;;;;16.80;13.27;;;;;;;;;;5228834;28;20040;-75
2023/04/24 01:07:38;;;;;;;15.70;11.77;;;;;;;;;;5229250;28;20013;-75
2023/04/24 01:10:09;;;;;;;16.33;12.80;;;;;;;;;;5229190;28;20114;-75
2023/04/24 01:12:41;;;;;;;18.20;12.67;;;;;;;;;;5230310;28;20021;-75
2023/04/24 01:15:12;;;;;;;14.43;12.97;;;;;;;;;;5229445;28;20049;-75
2023/04/24 01:17:43;;;;;;;19.13;13.50;;;;;;;;;;5229254;28;20014;-75
2023/04/24 01:20:15;;;;;;;16.63;13.33;;;;;;;;;;5229289;28;20147;-75
2023/04/24 01:22:47;;;;;;;17.60;13.20;;;;;;;;;;5229158;28;20018;-75
2023/04/24 01:25:18;;;;;;;15.30;12.20;;;;;;;;;;5229847;28;20024;-75
2023/04/24 01:27:50;;;;;;;16.97;13.57;;;;;;;;;;5229613;28;20028;-75
2023/04/24 01:30:21;;;;;;;19.40;14.07;;;;;;;;;;5229354;28;20028;-74
2023/04/24 01:32:52;;;;;;;20.00;15.53;;;;;;;;;;5229568;28;20204;-74
2023/04/24 01:35:24;;;;;;;21.17;15.00;;;;;;;;;;5229827;28;20025;-75
2023/04/24 01:37:55;;;;;;;19.83;15.50;;;;;;;;;;5228665;28;20018;-75
2023/04/24 01:40:26;;;;;;;18.97;14.93;;;;;;;;;;5241616;28;20029;-75
2023/04/24 01:42:57;;;;;;;24.80;16.03;;;;;;;;;;5233840;28;20032;-75
2023/04/24 01:45:29;;;;;;;20.77;16.40;;;;;;;;;;5227709;28;20373;-75
2023/04/24 01:48:00;;;;;;;20.77;16.73;;;;;;;;;;5228665;28;20671;-74
2023/04/24 01:50:31;;;;;;;20.20;16.40;;;;;;;;;;5228883;28;20032;-74
2023/04/24 01:53:03;;;;;;;22.47;17.03;;;;;;;;;;5234785;28;20100;-74
2023/04/24 01:55:34;;;;;;;21.20;16.33;;;;;;;;;;5308698;27;20025;-74
2023/04/24 01:58:05;;;;;;;21.83;18.03;;;;;;;;;;5229662;28;20108;-74
2023/04/24 02:00:36;;;;;;;21.93;17.53;;;;;;;;;;5228974;28;20028;-74
2023/04/24 02:03:08;;;;;;;20.83;16.53;;;;;;;;;;5229470;28;20049;-75
2023/04/24 02:05:39;;;;;;;21.67;16.77;;;;;;;;;;5228990;28;20017;-74
2023/04/24 02:08:10;;;;;;;22.13;17.77;;;;;;;;;;5228097;28;20104;-74
2023/04/24 02:10:41;;;;;;;18.70;16.77;;;;;;;;;;5229944;28;20069;-74
2023/04/24 02:13:13;;;;;;;23.33;18.57;;;;;;;;;;5232364;28;20372;-74
2023/04/24 02:15:44;;;;;;;22.70;17.53;;;;;;;;;;5233142;28;20045;-74
2023/04/24 02:18:15;;;;;;;23.70;16.47;;;;;;;;;;5232270;28;20684;-74
2023/04/24 02:20:46;;;;;;;19.97;16.80;;;;;;;;;;5231561;28;20022;-74
2023/04/24 02:23:17;;;;;;;21.97;17.33;;;;;;;;;;5231729;28;20021;-74
2023/04/24 02:25:49;;;;;;;19.67;17.30;;;;;;;;;;5232889;28;20022;-74
2023/04/24 02:28:20;;;;;;;21.13;16.93;;;;;;;;;;5232064;28;20029;-75
2023/04/24 02:30:51;;;;;;;24.33;18.50;;;;;;;;;;5232775;28;20456;-75
2023/04/24 02:33:22;;;;;;;27.07;18.37;;;;;;;;;;5232516;28;20025;-75
2023/04/24 02:35:53;;;;;;;25.13;17.40;;;;;;;;;;5232150;28;20680;-75
2023/04/24 02:38:25;;;;;;;24.00;18.60;;;;;;;;;;5231387;28;20041;-75
2023/04/24 02:40:56;;;;;;;20.47;17.00;;;;;;;;;;5231319;28;20074;-75
2023/04/24 02:43:27;;;;;;;21.57;17.73;;;;;;;;;;5236692;28;20036;-75
2023/04/24 02:45:59;;;;;;;24.17;17.50;;;;;;;;;;5243949;28;20598;-75
2023/04/24 02:48:30;;;;;;;27.70;19.80;;;;;;;;;;5232123;28;20057;-75
2023/04/24 02:51:01;;;;;;;21.93;19.00;;;;;;;;;;5232254;28;20029;-75
2023/04/24 02:53:32;;;;;;;20.30;17.00;;;;;;;;;;5231099;28;20047;-75
2023/04/24 02:56:03;;;;;;;24.77;17.30;;;;;;;;;;5232559;28;20463;-75
2023/04/24 02:58:35;;;;;;;19.97;17.33;;;;;;;;;;5230553;28;20017;-74
2023/04/24 03:01:06;;;;;;;19.17;17.17;;;;;;;;;;5232611;28;20112;-75
2023/04/24 03:03:38;;;;;;;25.50;16.27;;;;;;;;;;5232037;28;20017;-75
2023/04/24 03:06:09;;;;;;;20.43;18.23;;;;;;;;;;5220911;27;20512;-75
2023/04/24 03:08:41;;;;;;;22.80;17.30;;;;;;;;;;5225975;28;20021;-75
2023/04/24 03:11:12;;;;;;;24.67;17.93;;;;;;;;;;5231678;28;20049;-75
2023/04/24 03:13:43;;;;;;;23.00;17.60;;;;;;;;;;5232246;28;20026;-75
2023/04/24 03:16:14;;;;;;;20.37;17.13;;;;;;;;;;5231764;28;20029;-75
2023/04/24 03:18:45;;;;;;;25.57;16.90;;;;;;;;;;5231651;28;20109;-75
2023/04/24 03:21:17;;;;;;;17.17;15.37;;;;;;;;;;5230960;28;20757;-75
2023/04/24 03:23:48;;;;;;;17.03;14.87;;;;;;;;;;5230937;28;20018;-75
2023/04/24 03:26:19;;;;;;;18.03;15.20;;;;;;;;;;5230948;28;20065;-75
2023/04/24 03:28:50;;;;;;;20.10;14.50;;;;;;;;;;5232074;28;20020;-75
2023/04/24 03:31:22;;;;;;;20.30;14.50;;;;;;;;;;5231328;28;20066;-74
2023/04/24 03:33:53;;;;;;;18.20;13.87;;;;;;;;;;5230556;28;20024;-75
2023/04/24 03:36:25;;;;;;;18.57;13.67;;;;;;;;;;5230669;27;20022;-75
2023/04/24 03:38:57;;;;;;;19.13;14.40;;;;;;;;;;5231884;28;20024;-75
2023/04/24 03:41:28;;;;;;;18.80;14.00;;;;;;;;;;5231094;28;20017;-75
2023/04/24 03:44:00;;;;;;;19.13;13.93;;;;;;;;;;5229858;28;20109;-74
2023/04/24 03:46:31;;;;;;;16.27;13.57;;;;;;;;;;5231503;28;20361;-74
2023/04/24 03:49:02;;;;;;;18.10;13.80;;;;;;;;;;5231065;28;20016;-74
2023/04/24 03:51:33;;;;;;;21.20;14.83;;;;;;;;;;5230308;28;20026;-74
2023/04/24 03:54:04;;;;;;;18.43;12.53;;;;;;;;;;5229681;27;20608;-74
2023/04/24 03:56:36;;;;;;;25.43;14.17;;;;;;;;;;5244802;28;20016;-75
2023/04/24 03:59:07;;;;;;;15.33;11.47;;;;;;;;;;5233505;28;20021;-74
2023/04/24 04:01:39;;;;;;;18.57;13.23;;;;;;;;;;5222800;28;20049;-74
2023/04/24 04:04:10;;;;;;;15.33;12.83;;;;;;;;;;5311377;27;20025;-74
2023/04/24 04:06:42;;;;;;;13.33;11.27;;;;;;;;;;5207740;28;20034;-74
2023/04/24 04:09:13;;;;;;;16.80;12.50;;;;;;;;;;5209741;28;20727;-74
2023/04/24 04:11:45;;;;;;;14.57;12.93;;;;;;;;;;5210191;28;20037;-74
2023/04/24 04:14:16;;;;;;;15.83;12.00;;;;;;;;;;5209912;28;20025;-74
2023/04/24 04:16:47;;;;;;;14.23;12.17;;;;;;;;;;5210192;28;20030;-74
2023/04/24 04:19:18;;;;;;;15.93;13.27;;;;;;;;;;5210008;28;20493;-74
2023/04/24 04:21:55;;;;;;;14.50;12.57;;;;;;;;;;5209353;28;20022;-74
2023/04/24 04:24:27;;;;;;;15.57;13.10;;;;;;;;;;5209718;28;20026;-74
2023/04/24 04:26:58;;;;;;;15.53;13.57;;;;;;;;;;5209962;28;20104;-75
2023/04/24 04:29:31;;;;;;;14.67;13.27;;;;;;;;;;5210033;28;20022;-75
2023/04/24 04:32:02;;;;;;;14.33;12.37;;;;;;;;;;5209732;28;20034;-75
2023/04/24 04:34:33;;;;;;;13.80;12.27;;;;;;;;;;5209714;28;20026;-75
2023/04/24 04:37:05;;;;;;;13.63;12.23;;;;;;;;;;5209318;28;20036;-75
2023/04/24 04:39:36;;;;;;;13.90;12.40;;;;;;;;;;5207949;28;20030;-75
2023/04/24 04:42:08;;;;;;;14.30;11.27;;;;;;;;;;5209966;28;20018;-75
2023/04/24 04:44:39;;;;;;;14.67;11.60;;;;;;;;;;5209096;28;20060;-74
2023/04/24 04:47:10;;;;;;;14.53;12.87;;;;;;;;;;5223596;28;20021;-74
2023/04/24 04:49:42;;;;;;;12.67;11.23;;;;;;;;;;5229452;28;20053;-75
2023/04/24 04:52:14;;;;;;;13.17;11.87;;;;;;;;;;5227080;28;20021;-74
2023/04/24 04:54:46;;;;;;;14.63;12.17;;;;;;;;;;5229389;28;20735;-74
2023/04/24 04:57:17;;;;;;;13.17;10.90;;;;;;;;;;5331697;27;20013;-73
2023/04/24 04:59:48;;;;;;;11.60;10.50;;;;;;;;;;5229462;28;20437;-74
2023/04/24 05:02:20;;;;;;;9.93;9.03;;;;;;;;;;5229116;28;20396;-75
2023/04/24 05:04:51;;;;;;;11.03;9.33;;;;;;;;;;5229725;28;20542;-75
2023/04/24 05:07:22;;;;;;;10.83;9.23;;;;;;;;;;5228381;28;20364;-74
2023/04/24 05:09:54;;;;;;;9.53;8.63;;;;;;;;;;5229909;28;20100;-75
2023/04/24 05:12:25;;;;;;;11.20;9.00;;;;;;;;;;5229207;28;20021;-75
2023/04/24 05:14:56;;;;;;;8.90;8.00;;;;;;;;;;5229885;28;20395;-74
2023/04/24 05:17:28;;;;;;;9.20;8.30;;;;;;;;;;5229536;28;20022;-74
2023/04/24 05:19:59;;;;;;;8.87;7.57;;;;;;;;;;5230220;28;20051;-74
2023/04/24 05:22:30;;;;;;;7.27;6.33;;;;;;;;;;5228081;28;20017;-74
2023/04/24 05:25:02;;;;;;;7.67;6.43;;;;;;;;;;5227875;28;20056;-75
2023/04/24 05:27:33;;;;;;;7.17;6.20;;;;;;;;;;5229137;28;20106;-75
2023/04/24 05:30:05;;;;;;;6.17;4.83;;;;;;;;;;5213441;28;20026;-75
2023/04/24 05:32:36;;;;;;;7.33;5.03;;;;;;;;;;5226470;28;20460;-75
2023/04/24 05:35:08;;;;;;;4.87;3.83;;;;;;;;;;5228499;28;20017;-76
2023/04/24 05:37:39;;;;;;;5.27;3.27;;;;;;;;;;5225969;28;20029;-76
2023/04/24 05:40:10;;;;;;;6.40;2.53;;;;;;;;;;5228255;28;20017;-76
2023/04/24 05:42:42;;;;;;;3.23;1.97;;;;;;;;;;5228788;28;20074;-76
2023/04/24 05:45:16;;;;;;;3.50;1.77;;;;;;;;;;5331075;27;20041;-75
2023/04/24 05:47:47;;;;;;;3.40;1.58;;;;;;;;;;5228828;28;20102;-75
2023/04/24 05:50:18;;;;;;;3.20;1.70;;;;;;;;;;5209860;28;20521;-75
2023/04/24 05:52:50;;;;;;;3.90;1.93;;;;;;;;;;5210938;28;20041;-75
2023/04/24 05:55:21;;;;;;;4.23;1.83;;;;;;;;;;5212301;28;20037;-75
2023/04/24 05:57:52;;;;;;;2.17;1.53;;;;;;;;;;5210452;28;20022;-76
2023/04/24 06:00:24;;;;;;;2.43;1.50;;;;;;;;;;5212125;28;20487;-75
2023/04/24 06:02:55;;;;;;;2.73;1.40;;;;;;;;;;5314148;27;20097;-75
2023/04/24 06:05:26;;;;;;;3.83;2.37;;;;;;;;;;5211783;28;20022;-75
2023/04/24 06:07:58;;;;;;;3.80;2.07;;;;;;;;;;5209795;28;20058;-75
2023/04/24 06:10:29;;;;;;;2.83;1.70;;;;;;;;;;5211326;28;20482;-76
2023/04/24 06:13:01;;;;;;;3.87;1.90;;;;;;;;;;5211710;28;20358;-76
2023/04/24 06:15:32;;;;;;;4.50;2.60;;;;;;;;;;5228413;28;20041;-76
2023/04/24 06:18:03;;;;;;;5.30;3.47;;;;;;;;;;5230841;28;20013;-76
2023/04/24 06:20:34;;;;;;;5.97;3.80;;;;;;;;;;5232022;28;20025;-76
2023/04/24 06:23:06;;;;;;;4.73;3.60;;;;;;;;;;5231735;28;20021;-76
2023/04/24 06:25:37;;;;;;;6.43;4.37;;;;;;;;;;5232169;28;20093;-76
2023/04/24 06:28:08;;;;;;;5.40;4.30;;;;;;;;;;5232687;28;20054;-76
2023/04/24 06:30:40;;;;;;;6.57;4.70;;;;;;;;;;5232056;28;20037;-76
2023/04/24 06:33:12;;;;;;;8.40;4.87;;;;;;;;;;5231643;28;20020;-76
2023/04/24 06:35:43;;;;;;;6.47;4.90;;;;;;;;;;5231361;28;20017;-76
2023/04/24 06:38:15;;;;;;;8.53;5.50;;;;;;;;;;5188599;27;20071;-76
2023/04/24 06:40:46;;;;;;;8.30;6.23;;;;;;;;;;5235887;28;20206;-76
2023/04/24 06:43:19;;;;;;;8.50;6.17;;;;;;;;;;5227119;28;20022;-76
2023/04/24 06:45:50;;;;;;;9.57;6.60;;;;;;;;;;5226935;28;20033;-76
2023/04/24 06:48:21;;;;;;;9.53;7.70;;;;;;;;;;5234062;28;20037;-76
2023/04/24 06:50:52;;;;;;;9.43;7.13;;;;;;;;;;5243351;28;20074;-76
2023/04/24 06:53:25;;;;;;;12.03;8.20;;;;;;;;;;5246171;27;20108;-74
2023/04/24 06:55:56;;;;;;;11.73;8.63;;;;;;;;;;5239908;28;20021;-75
2023/04/24 06:58:27;;;;;;;14.00;9.70;;;;;;;;;;5226003;28;20028;-76
2023/04/24 07:00:58;;;;;;;14.80;9.67;;;;;;;;;;5225308;28;20033;-75
2023/04/24 07:03:30;;;;;;;15.57;10.20;;;;;;;;;;5230318;28;20018;-75
2023/04/24 07:06:03;;;;;;;12.07;10.43;;;;;;;;;;5231177;27;20123;-75
2023/04/24 07:08:35;;;;;;;13.50;10.67;;;;;;;;;;5232984;28;20419;-75
2023/04/24 07:11:07;;;;;;;15.30;10.03;;;;;;;;;;5232396;27;20060;-75
2023/04/24 07:13:41;;;;;;;19.77;12.00;;;;;;;;;;5234759;28;20020;-75
2023/04/24 07:16:13;;;;;;;13.23;9.13;;;;;;;;;;5235686;28;20022;-75
2023/04/24 07:18:44;;;;;;;14.93;10.80;;;;;;;;;;5239451;28;20056;-75
2023/04/24 07:21:15;;;;;;;18.67;10.50;;;;;;;;;;5228634;28;20108;-75
2023/04/24 07:23:46;;;;;;;16.57;11.03;;;;;;;;;;5230512;28;20488;-75
2023/04/24 07:26:18;;;;;;;20.73;11.43;;;;;;;;;;5229392;28;20124;-75
2023/04/24 07:28:49;;;;;;;14.60;11.73;;;;;;;;;;5235087;28;20028;-75
2023/04/24 07:31:20;;;;;;;16.37;10.43;;;;;;;;;;5229827;27;20033;-75
2023/04/24 07:33:52;;;;;;;13.43;9.90;;;;;;;;;;5227755;28;20089;-75
2023/04/24 07:36:24;;;;;;;13.83;10.47;;;;;;;;;;5222145;28;20032;-76
2023/04/24 07:38:56;;;;;;;14.33;7.90;;;;;;;;;;5221169;28;20033;-74
2023/04/24 07:41:27;;;;;;;11.63;6.90;;;;;;;;;;5240173;28;20015;-74
2023/04/24 07:43:59;;;;;;;14.30;6.90;;;;;;;;;;5243862;27;20648;-74
2023/04/24 07:46:30;;;;;;;16.57;6.97;;;;;;;;;;5239400;28;20417;-74
2023/04/24 07:49:01;;;;;;;12.27;7.27;;;;;;;;;;5241790;27;20029;-74
2023/04/24 07:51:37;;;;;;;17.23;7.00;;;;;;;;;;5225379;28;20016;-74
2023/04/24 07:54:09;;;;;;;14.17;6.30;;;;;;;;;;5230862;27;20030;-75
2023/04/24 07:56:42;;;;;;;12.70;5.80;;;;;;;;;;5234561;28;20491;-74
2023/04/24 07:59:13;;;;;;;13.77;6.37;;;;;;;;;;5315155;27;20030;-76
2023/04/24 08:01:45;;;;;;;19.87;7.27;;;;;;;;;;5268881;27;20018;-76
2023/04/24 08:04:17;;;;;;;13.27;6.70;;;;;;;;;;5240317;27;20033;-75
2023/04/24 08:06:49;;;;;;;17.47;7.07;;;;;;;;;;5229978;28;20029;-75
2023/04/24 08:09:20;;;;;;;16.97;6.37;;;;;;;;;;5228911;27;20037;-75
2023/04/24 08:11:51;;;;;;;19.00;7.83;;;;;;;;;;5229536;28;20526;-75
2023/04/24 08:14:22;;;;;;;15.67;7.53;;;;;;;;;;5229806;28;20116;-75
2023/04/24 08:16:54;;;;;;;20.57;7.60;;;;;;;;;;5229322;28;20020;-75
2023/04/24 08:19:26;;;;;;;16.87;8.70;;;;;;;;;;5229801;28;20028;-75
2023/04/24 08:21:57;;;;;;;22.03;8.87;;;;;;;;;;5228979;28;20025;-75
2023/04/24 08:24:28;;;;;;;18.40;8.67;;;;;;;;;;5213418;28;21290;-76
2023/04/24 08:27:01;;;;;;;18.67;8.03;;;;;;;;;;5209447;28;20109;-74
2023/04/24 08:29:32;;;;;;;21.27;8.00;;;;;;;;;;5209163;28;20068;-75
2023/04/24 08:32:03;;;;;;;20.83;8.40;;;;;;;;;;5209288;28;20025;-74
2023/04/24 08:34:34;;;;;;;18.57;6.27;;;;;;;;;;5207971;28;20381;-75
2023/04/24 08:37:05;;;;;;;19.20;7.20;;;;;;;;;;5208554;28;20033;-75
2023/04/24 08:39:37;;;;;;;20.83;6.30;;;;;;;;;;5208305;28;20102;-74
2023/04/24 08:42:09;;;;;;;20.97;7.20;;;;;;;;;;5228072;28;20028;-75
2023/04/24 08:44:40;;;;;;;22.97;7.37;;;;;;;;;;5225514;27;20030;-74
2023/04/24 08:47:12;;;;;;;22.93;7.00;;;;;;;;;;5210364;28;20037;-75
2023/04/24 08:49:43;;;;;;;22.50;7.27;;;;;;;;;;5229729;28;20373;-75
2023/04/24 08:52:15;;;;;;;18.57;6.17;;;;;;;;;;5225992;28;20063;-75
2023/04/24 08:54:46;;;;;;;20.07;5.67;;;;;;;;;;5212421;28;20133;-74
2023/04/24 08:57:18;;;;;;;20.13;6.20;;;;;;;;;;5225863;28;20021;-74
2023/04/24 08:59:49;;;;;;;23.90;5.43;;;;;;;;;;5217263;28;20014;-74
2023/04/24 09:02:20;;;;;;;20.40;5.47;;;;;;;;;;5228736;28;20433;-74
2023/04/24 09:04:52;;;;;;;24.00;6.53;;;;;;;;;;5229373;28;20112;-75
2023/04/24 09:07:25;;;;;;;17.60;4.67;;;;;;;;;;5226466;28;20082;-74
2023/04/24 09:09:57;;;;;;;17.70;5.30;;;;;;;;;;5228719;28;20046;-74
2023/04/24 09:12:28;;;;;;;18.63;4.97;;;;;;;;;;5208886;28;20017;-74
2023/04/24 09:15:00;;;;;;;13.97;5.40;;;;;;;;;;5210810;28;20594;-74
2023/04/24 09:17:31;;;;;;;16.70;4.80;;;;;;;;;;5208624;28;20024;-74
2023/04/24 09:20:04;;;;;;;12.70;4.07;;;;;;;;;;5207843;28;20043;-74
2023/04/24 09:22:35;;;;;;;13.00;4.13;;;;;;;;;;5230288;28;20025;-74
2023/04/24 09:25:07;;;;;;;15.60;4.40;;;;;;;;;;5232937;28;20014;-75
2023/04/24 09:27:43;;;;;;;19.07;4.17;;;;;;;;;;5231128;28;20033;-75
2023/04/24 09:30:20;;;;;;;15.50;4.37;;;;;;;;;;5232014;28;20032;-75
2023/04/24 09:33:09;;;;;;;17.43;4.27;;;;;;;;;;5232743;28;20025;-75
2023/04/24 09:35:50;;;;;;;16.90;4.63;;;;;;;;;;5231797;28;20049;-74
2023/04/24 09:38:38;;;;;;;11.77;4.23;;;;;;;;;;5231069;28;20025;-75
2023/04/24 09:41:13;;;;;;;19.13;4.73;;;;;;;;;;5232444;28;20020;-74
2023/04/24 09:43:44;;;;;;;17.53;5.13;;;;;;;;;;5232525;28;20374;-74
2023/04/24 09:46:18;;;;;;;15.50;3.60;;;;;;;;;;5231619;28;20029;-74
2023/04/24 09:48:49;;;;;;;12.65;3.28;;;;;;;;;;5232704;28;20108;-74
2023/04/24 09:51:32;;;;;;;10.30;3.17;;;;;;;;;;5230982;28;20606;-74
2023/04/24 09:54:15;;;;;;;13.50;3.33;;;;;;;;;;5231623;28;20070;-74
2023/04/24 09:56:47;;;;;;;16.83;5.53;;;;;;;;;;5231975;28;20013;-74
2023/04/24 09:59:19;;;;;;;16.43;4.03;;;;;;;;;;5230108;28;20036;-74
2023/04/24 10:01:52;;;;;;;12.10;3.23;;;;;;;;;;5231790;28;20389;-75
2023/04/24 10:04:24;;;;;;;9.93;2.87;;;;;;;;;;5219863;28;20037;-74
2023/04/24 10:06:56;;;;;;;20.20;4.23;;;;;;;;;;5210287;28;20029;-74
2023/04/24 10:09:27;;;;;;;12.23;3.63;;;;;;;;;;5228504;28;20045;-74
2023/04/24 10:11:59;;;;;;;8.90;3.13;;;;;;;;;;5224681;28;20109;-73
2023/04/24 10:14:31;;;;;;;9.60;2.93;;;;;;;;;;5334926;27;20021;-74
2023/04/24 10:17:02;;;;;;;8.00;2.60;;;;;;;;;;5228995;28;20031;-74
2023/04/24 10:19:34;;;;;;;11.13;2.80;;;;;;;;;;5231065;28;20108;-73
2023/04/24 10:22:05;;;;;;;9.53;3.47;;;;;;;;;;5230037;28;20010;-74
2023/04/24 10:24:38;;;;;;;9.07;2.87;;;;;;;;;;5230911;28;20022;-73
2023/04/24 10:27:09;;;;;;;9.80;2.50;;;;;;;;;;5231304;28;20025;-74
2023/04/24 10:29:41;;;;;;;7.33;2.50;;;;;;;;;;5231832;28;20031;-74
2023/04/24 10:32:12;;;;;;;7.90;1.60;;;;;;;;;;5222516;28;20061;-74
2023/04/24 10:34:43;;;;;;;4.23;1.33;;;;;;;;;;5210355;28;20029;-74
2023/04/24 10:37:15;;;;;;;11.70;1.90;;;;;;;;;;5210155;28;20018;-74
2023/04/24 10:39:47;;;;;;;6.40;1.80;;;;;;;;;;5232238;28;20532;-74
2023/04/24 10:42:19;;;;;;;8.33;1.93;;;;;;;;;;5208430;28;20014;-74
2023/04/24 10:44:50;;;;;;;4.67;1.20;;;;;;;;;;5210264;28;20044;-74
2023/04/24 10:47:21;;;;;;;3.97;1.40;;;;;;;;;;5210866;28;20075;-74
2023/04/24 10:49:52;;;;;;;5.87;1.20;;;;;;;;;;5209680;28;20041;-75
2023/04/24 10:52:43;;;;;;;6.73;1.00;;;;;;;;;;5231461;28;20100;-75
2023/04/24 10:55:15;;;;;;;6.10;1.93;;;;;;;;;;5249663;28;20612;-75
2023/04/24 10:58:03;;;;;;;9.93;2.50;;;;;;;;;;5250115;28;20032;-74
2023/04/24 11:00:36;;;;;;;5.70;2.10;;;;;;;;;;5250196;28;20100;-75
2023/04/24 11:03:23;;;;;;;7.23;1.50;;;;;;;;;;5250103;28;20017;-75
2023/04/24 11:05:57;;;;;;;6.93;2.07;;;;;;;;;;5249673;28;20025;-75
2023/04/24 11:08:31;;;;;;;6.55;1.63;;;;;;;;;;5251661;28;20009;-75
2023/04/24 11:11:07;;;;;;;6.25;1.50;;;;;;;;;;5251255;28;20144;-74
2023/04/24 11:13:54;;;;;;;6.87;1.50;;;;;;;;;;5245266;28;20071;-74
2023/04/24 11:16:25;;;;;;;8.37;2.33;;;;;;;;;;5217887;28;20049;-74
2023/04/24 11:19:01;;;;;;;8.00;1.60;;;;;;;;;;5312195;27;20049;-74
2023/04/24 11:21:38;;;;;;;3.70;1.50;;;;;;;;;;5212617;28;20572;-74
2023/04/24 11:24:21;;;;;;;4.83;1.40;;;;;;;;;;5220021;28;20041;-75
2023/04/24 11:26:56;;;;;;;6.50;1.30;;;;;;;;;;5222499;28;20030;-75
2023/04/24 11:29:47;;;;;;;4.10;1.40;;;;;;;;;;5219279;28;20429;-74
2023/04/24 11:32:19;;;;;;;4.03;1.13;;;;;;;;;;5209908;28;20399;-75
2023/04/24 11:34:51;;;;;;;7.03;2.10;;;;;;;;;;5311170;27;20030;-77
2023/04/24 11:37:27;;;;;;;5.33;1.37;;;;;;;;;;5227395;28;20453;-77
2023/04/24 11:39:58;;;;;;;5.83;1.73;;;;;;;;;;5230286;28;20078;-76
2023/04/24 11:42:36;;;;;;;6.83;1.60;;;;;;;;;;5230704;28;20018;-76
2023/04/24 11:45:14;;;;;;;6.83;1.67;;;;;;;;;;5221922;28;20025;-77
2023/04/24 11:47:46;;;;;;;9.13;1.73;;;;;;;;;;5230705;28;20025;-75
2023/04/24 11:50:18;;;;;;;6.80;1.30;;;;;;;;;;5228795;28;20034;-74
2023/04/24 11:52:50;;;;;;;6.30;1.37;;;;;;;;;;5229916;28;20033;-75
2023/04/24 11:55:21;;;;;;;7.63;1.20;;;;;;;;;;5231656;28;20022;-74
2023/04/24 11:58:01;;;;;;;5.30;1.33;;;;;;;;;;5225553;28;20460;-76
2023/04/24 12:00:34;;;;;;;7.93;1.90;;;;;;;;;;5225253;28;20074;-76
2023/04/24 12:03:08;;;;;;;4.57;1.17;;;;;;;;;;5225977;28;20029;-76
2023/04/24 12:05:40;;;;;;;4.53;1.00;;;;;;;;;;5226941;28;20025;-74
2023/04/24 12:08:11;;;;;;;6.27;2.07;;;;;;;;;;5223187;28;20094;-74
2023/04/24 12:10:42;;;;;;;7.77;1.20;;;;;;;;;;5226277;28;20607;-75
2023/04/24 12:13:16;;;;;;;8.57;1.40;;;;;;;;;;5225960;28;20025;-76
2023/04/24 12:15:50;;;;;;;4.53;1.70;;;;;;;;;;5229497;28;20033;-76
2023/04/24 12:18:25;;;;;;;4.73;1.47;;;;;;;;;;5227622;28;20025;-77
2023/04/24 12:21:14;;;;;;;3.17;1.67;;;;;;;;;;5227808;28;20040;-77
2023/04/24 12:23:47;;;;;;;4.20;1.53;;;;;;;;;;5228671;28;20037;-76
2023/04/24 12:26:19;;;;;;;4.10;1.13;;;;;;;;;;5230413;28;20099;-75
2023/04/24 12:28:50;;;;;;;6.73;1.33;;;;;;;;;;5227984;28;20373;-75
2023/04/24 12:31:21;;;;;;;5.27;1.37;;;;;;;;;;5229006;28;20033;-75
2023/04/24 12:33:52;;;;;;;6.27;1.20;;;;;;;;;;5230554;28;20025;-76
2023/04/24 12:36:24;;;;;;;4.33;1.20;;;;;;;;;;5225172;28;20793;-75
2023/04/24 12:38:55;;;;;;;5.33;1.37;;;;;;;;;;5225750;28;20118;-76
2023/04/24 12:41:26;;;;;;;3.13;1.10;;;;;;;;;;5230328;28;20036;-75
2023/04/24 12:43:57;;;;;;;3.53;0.93;;;;;;;;;;5226310;28;20024;-76
2023/04/24 12:46:28;;;;;;;2.90;0.90;;;;;;;;;;5227627;28;20090;-75
2023/04/24 12:49:00;;;;;;;5.25;1.50;;;;;;;;;;5229832;28;20028;-76
2023/04/24 12:51:31;;;;;;;2.13;0.80;;;;;;;;;;5226765;28;20032;-76
2023/04/24 12:54:02;;;;;;;5.97;0.70;;;;;;;;;;5230181;28;20033;-76
2023/04/24 12:56:36;;;;;;;7.37;1.27;;;;;;;;;;5231204;28;20021;-76
2023/04/24 12:59:07;;;;;;;3.13;1.03;;;;;;;;;;5227752;28;20057;-76
2023/04/24 13:01:38;;;;;;;2.50;1.10;;;;;;;;;;5226112;28;20112;-76
2023/04/24 13:04:09;;;;;;;5.43;1.57;;;;;;;;;;5227527;28;20036;-76
2023/04/24 13:06:41;;;;;;;6.10;1.30;;;;;;;;;;5222920;28;20037;-75
2023/04/24 13:09:12;;;;;;;6.60;1.10;;;;;;;;;;5226602;28;20022;-76
2023/04/24 13:11:43;;;;;;;5.00;1.20;;;;;;;;;;5229174;28;20041;-75
2023/04/24 13:14:14;;;;;;;2.67;1.20;;;;;;;;;;5223653;28;20093;-75
2023/04/24 13:16:46;;;;;;;7.33;1.53;;;;;;;;;;5230047;28;20078;-75
2023/04/24 13:19:17;;;;;;;10.27;1.93;;;;;;;;;;5225536;28;20074;-76
2023/04/24 13:21:49;;;;;;;5.17;1.50;;;;;;;;;;5225660;28;20029;-75
2023/04/24 13:24:20;;;;;;;5.63;1.60;;;;;;;;;;5229918;28;20032;-75
2023/04/24 13:26:51;;;;;;;7.47;1.27;;;;;;;;;;5226112;28;20144;-75
2023/04/24 13:29:23;;;;;;;4.37;1.00;;;;;;;;;;5227044;28;20033;-75
2023/04/24 13:31:57;;;;;;;4.87;1.10;;;;;;;;;;5228219;28;20766;-75
2023/04/24 13:34:28;;;;;;;4.05;1.30;;;;;;;;;;5225997;28;20021;-75
2023/04/24 13:36:59;;;;;;;4.43;1.20;;;;;;;;;;5228592;28;20029;-75
2023/04/24 13:39:31;;;;;;;4.83;1.07;;;;;;;;;;5222138;28;20032;-75
2023/04/24 13:42:02;;;;;;;4.80;1.80;;;;;;;;;;5229460;28;20032;-75
2023/04/24 13:44:33;;;;;;;4.07;1.30;;;;;;;;;;5229417;28;20111;-75
2023/04/24 13:47:05;;;;;;;4.70;1.30;;;;;;;;;;5223737;28;20030;-75
2023/04/24 13:49:36;;;;;;;3.60;1.20;;;;;;;;;;5224165;28;20121;-74
2023/04/24 13:52:07;;;;;;;4.17;1.20;;;;;;;;;;5227515;28;20620;-74
2023/04/24 13:54:39;;;;;;;5.47;1.67;;;;;;;;;;5228799;28;20041;-74
2023/04/24 13:57:10;;;;;;;4.27;1.33;;;;;;;;;;5225833;28;20103;-76
2023/04/24 13:59:41;;;;;;;3.83;1.83;;;;;;;;;;5229971;28;20036;-75
2023/04/24 14:02:12;;;;;;;8.13;1.83;;;;;;;;;;5248461;28;20017;-75
2023/04/24 14:04:44;;;;;;;6.33;1.40;;;;;;;;;;5247711;28;20021;-75
2023/04/24 14:07:15;;;;;;;6.97;1.63;;;;;;;;;;5234698;28;20387;-75
2023/04/24 14:09:46;;;;;;;6.27;1.70;;;;;;;;;;5231306;28;20037;-75
2023/04/24 14:12:19;;;;;;;5.83;1.57;;;;;;;;;;5231185;28;20025;-75
2023/04/24 14:14:50;;;;;;;2.97;1.50;;;;;;;;;;5231690;28;20045;-75
2023/04/24 14:17:22;;;;;;;4.30;1.17;;;;;;;;;;5231154;28;20029;-75
2023/04/24 14:19:56;;;;;;;6.00;1.50;;;;;;;;;;5230387;28;20009;-75
2023/04/24 14:22:27;;;;;;;5.13;1.83;;;;;;;;;;5230545;28;20056;-75
2023/04/24 14:24:58;;;;;;;3.87;1.50;;;;;;;;;;5231436;28;20144;-75
2023/04/24 14:27:30;;;;;;;3.70;1.33;;;;;;;;;;5230981;28;20049;-75
2023/04/24 14:30:01;;;;;;;3.87;1.30;;;;;;;;;;5227250;28;20709;-75
2023/04/24 14:32:32;;;;;;;2.83;1.30;;;;;;;;;;5231091;28;20053;-75
2023/04/24 14:35:04;;;;;;;5.40;1.53;;;;;;;;;;5230150;28;20699;-75
2023/04/24 14:37:36;;;;;;;5.33;1.33;;;;;;;;;;5230987;28;20013;-75
2023/04/24 14:40:07;;;;;;;4.50;1.70;;;;;;;;;;5231237;28;20018;-75
2023/04/24 14:42:40;;;;;;;5.80;1.90;;;;;;;;;;5231212;28;20010;-75
2023/04/24 14:45:11;;;;;;;4.47;1.73;;;;;;;;;;5230983;28;20488;-75
2023/04/24 14:47:42;;;;;;;7.60;1.77;;;;;;;;;;5230526;28;20041;-75
2023/04/24 14:50:14;;;;;;;5.80;1.97;;;;;;;;;;5228346;28;20017;-75
2023/04/24 14:52:46;;;;;;;2.20;1.03;;;;;;;;;;5231291;28;20056;-75
2023/04/24 14:55:17;;;;;;;6.27;2.07;;;;;;;;;;5230315;28;20026;-75
2023/04/24 14:57:48;;;;;;;5.53;2.10;;;;;;;;;;5222985;27;20021;-76
2023/04/24 15:00:20;;;;;;;8.03;2.10;;;;;;;;;;5229743;28;20501;-76